Time;durP1;ratioP1;P1;durP2;ratioP2;P2;SDS_P1;SDS_P2;PMS_P1;PMS_P2;Temp;Humidity;BMP_temperature;BMP_pressure;BME280_temperature;BME280_humidity;BME280_pressure;Samples;Min_cycle;Max_cycle;Signal;HPM_P1;HPM_P2
2021/07/26 00:01:01;;;;;;;9.53;8.63;;;;;;;25.20;45.69;97352.58;126987;1092;62617;-73
2021/07/26 00:03:28;;;;;;;9.00;8.10;;;;;;;25.18;45.72;97349.27;126983;1090;62648;-73
2021/07/26 00:05:56;;;;;;;9.17;8.27;;;;;;;25.16;46.00;97347.84;126948;1092;62698;-74
2021/07/26 00:08:23;;;;;;;8.93;8.13;;;;;;;25.15;45.78;97347.03;127039;1092;62716;-73
2021/07/26 00:11:06;;;;;;;9.43;8.53;;;;;;;25.15;45.88;97347.03;126954;1092;62638;-73
2021/07/26 00:13:34;;;;;;;9.10;8.30;;;;;;;25.15;46.10;97352.38;126972;1090;62697;-73
2021/07/26 00:16:01;;;;;;;9.40;8.50;;;;;;;25.13;46.12;97354.41;126987;1092;62611;-72
2021/07/26 00:18:28;;;;;;;9.33;8.43;;;;;;;25.13;46.31;97359.77;126987;1092;62669;-73
2021/07/26 00:20:56;;;;;;;8.40;7.60;;;;;;;25.12;46.30;97352.78;127031;1092;62727;-74
2021/07/26 00:23:23;;;;;;;9.20;8.30;;;;;;;25.12;46.40;97352.78;126976;1092;62659;-73
2021/07/26 00:25:51;;;;;;;9.07;8.17;;;;;;;25.11;46.21;97351.95;127029;1092;62602;-73
2021/07/26 00:28:18;;;;;;;9.50;8.60;;;;;;;25.09;46.28;97351.32;126978;1092;62636;-72
2021/07/26 00:30:45;;;;;;;9.57;8.67;;;;;;;25.10;46.39;97352.17;126899;1092;62927;-72
2021/07/26 00:34:08;;;;;;;9.17;8.27;;;;;;;25.09;46.45;97353.17;126973;1092;62787;-72
2021/07/26 00:36:43;;;;;;;9.33;8.30;;;;;;;25.08;46.22;97351.53;127118;1092;62626;-73
2021/07/26 00:39:11;;;;;;;8.77;7.97;;;;;;;25.07;46.49;97352.54;127056;1092;62620;-74
2021/07/26 00:41:38;;;;;;;8.97;8.17;;;;;;;25.07;46.45;97349.87;127002;1092;62572;-72
2021/07/26 00:44:06;;;;;;;8.70;7.90;;;;;;;25.06;46.65;97342.88;126946;1092;62724;-72
2021/07/26 00:46:33;;;;;;;8.53;7.73;;;;;;;25.05;46.36;97341.20;126979;1092;62674;-74
2021/07/26 00:49:01;;;;;;;8.73;7.83;;;;;;;25.04;46.60;97336.89;126947;1092;62906;-73
2021/07/26 00:51:28;;;;;;;8.03;7.33;;;;;;;25.03;46.48;97338.75;127020;1092;62567;-75
2021/07/26 00:53:55;;;;;;;9.50;8.53;;;;;;;25.03;46.79;97337.93;126967;1092;62620;-72
2021/07/26 00:56:22;;;;;;;8.60;7.80;;;;;;;25.02;46.77;97336.29;126962;1092;62639;-74
2021/07/26 00:58:50;;;;;;;8.27;7.57;;;;;;;25.00;46.55;97336.47;126966;1092;62757;-73
2021/07/26 01:01:17;;;;;;;9.07;8.20;;;;;;;24.99;46.71;97331.34;126954;1092;62616;-73
2021/07/26 01:03:44;;;;;;;8.00;7.30;;;;;;;24.99;46.57;97326.81;126998;1092;62658;-73
2021/07/26 01:06:12;;;;;;;8.80;8.00;;;;;;;24.99;46.81;97320.64;127063;1092;62620;-77
2021/07/26 01:08:39;;;;;;;9.30;8.40;;;;;;;24.97;46.80;97320.04;127079;1092;62625;-74
2021/07/26 01:11:06;;;;;;;8.80;8.00;;;;;;;24.96;46.71;97329.06;126997;1092;62809;-75
2021/07/26 01:13:35;;;;;;;8.13;7.43;;;;;;;24.95;46.83;97338.94;127013;1092;62652;-73
2021/07/26 01:16:03;;;;;;;9.37;8.47;;;;;;;24.94;46.81;97334.63;126974;1092;62623;-73
2021/07/26 01:18:31;;;;;;;8.93;8.03;;;;;;;24.94;46.86;97333.81;126950;1092;62629;-73
2021/07/26 01:20:58;;;;;;;8.40;7.60;;;;;;;24.92;46.86;97331.34;127012;1092;62629;-73
2021/07/26 01:23:26;;;;;;;8.57;7.67;;;;;;;24.92;47.10;97339.37;127046;1092;62840;-73
2021/07/26 01:25:53;;;;;;;8.27;7.40;;;;;;;24.92;47.11;97343.89;126925;1092;62639;-74
2021/07/26 01:28:22;;;;;;;8.37;7.57;;;;;;;24.90;47.14;97350.25;126994;1092;62617;-73
2021/07/26 01:30:49;;;;;;;9.23;8.33;;;;;;;24.91;46.89;97348.39;126994;1092;62621;-75
2021/07/26 01:33:17;;;;;;;8.67;7.87;;;;;;;24.89;47.07;97343.26;127057;1092;62897;-73
2021/07/26 01:35:44;;;;;;;8.65;7.85;;;;;;;24.89;47.07;97334.42;127018;1092;62715;-73
2021/07/26 01:38:11;;;;;;;9.07;8.17;;;;;;;24.88;47.10;97352.31;127012;1092;62696;-75
2021/07/26 01:40:40;;;;;;;8.80;7.93;;;;;;;24.87;47.25;97350.67;127039;1092;62610;-73
2021/07/26 01:43:09;;;;;;;8.08;7.28;;;;;;;24.86;47.39;97353.53;127025;1092;62625;-73
2021/07/26 01:45:38;;;;;;;8.40;7.60;;;;;;;24.86;47.16;97354.34;127028;1092;62671;-76
2021/07/26 01:48:11;;;;;;;8.87;8.07;;;;;;;24.85;47.15;97352.70;127040;1092;62608;-70
2021/07/26 01:50:40;;;;;;;7.57;6.90;;;;;;;24.85;47.40;97359.91;126983;1092;62623;-70
2021/07/26 01:53:07;;;;;;;8.37;7.57;;;;;;;24.84;47.38;97353.74;126965;1092;62620;-73
2021/07/26 01:55:34;;;;;;;8.30;7.60;;;;;;;24.83;47.45;97351.28;127041;1092;62617;-74
2021/07/26 01:58:01;;;;;;;8.23;7.43;;;;;;;24.84;47.41;97344.91;126970;1092;62626;-71
2021/07/26 02:00:29;;;;;;;8.33;7.57;;;;;;;24.82;47.35;97339.77;126990;1092;62649;-72
2021/07/26 02:02:56;;;;;;;7.97;7.17;;;;;;;24.81;47.38;97340.77;127018;1092;62864;-71
2021/07/26 02:05:23;;;;;;;7.70;7.00;;;;;;;24.81;47.42;97335.42;126976;1092;62659;-74
2021/07/26 02:07:50;;;;;;;8.60;7.80;;;;;;;24.82;47.44;97344.27;126992;1092;62629;-72
2021/07/26 02:10:17;;;;;;;8.63;7.73;;;;;;;24.81;47.37;97340.77;126924;1092;62616;-72
2021/07/26 02:12:44;;;;;;;7.95;7.25;;;;;;;24.80;47.64;97335.64;127045;1090;62620;-72
2021/07/26 02:15:11;;;;;;;7.80;7.10;;;;;;;24.79;47.37;97345.52;126923;1092;62639;-72
2021/07/26 02:17:38;;;;;;;7.90;7.10;;;;;;;24.78;47.44;97346.55;126948;1092;62636;-72
2021/07/26 02:20:06;;;;;;;7.90;7.10;;;;;;;24.77;47.74;97344.88;127016;1092;62680;-72
2021/07/26 02:22:33;;;;;;;7.83;7.13;;;;;;;24.77;47.74;97358.23;127029;1092;63073;-72
2021/07/26 02:25:00;;;;;;;8.00;6.90;;;;;;;24.76;47.53;97364.62;126959;1092;62625;-72
2021/07/26 02:27:27;;;;;;;7.67;6.97;;;;;;;24.77;47.40;97366.26;127102;1092;62693;-73
2021/07/26 02:29:54;;;;;;;8.10;7.40;;;;;;;24.75;47.80;97357.63;127104;1092;62588;-72
2021/07/26 02:32:21;;;;;;;7.80;7.10;;;;;;;24.75;47.60;97362.98;127005;1092;62571;-73
2021/07/26 02:34:48;;;;;;;7.97;7.17;;;;;;;24.74;47.81;97372.03;126985;1092;62668;-73
2021/07/26 02:37:34;;;;;;;8.10;7.30;;;;;;;24.74;47.84;97372.03;127000;1092;62593;-72
2021/07/26 02:40:01;;;;;;;7.40;6.70;;;;;;;24.73;47.60;97378.41;126945;1092;62616;-71
2021/07/26 02:42:28;;;;;;;8.10;7.30;;;;;;;24.72;47.87;97376.73;126994;1092;62590;-72
2021/07/26 02:44:55;;;;;;;7.70;6.90;;;;;;;24.72;47.70;97373.24;127018;1092;62632;-71
2021/07/26 02:47:22;;;;;;;7.67;6.97;;;;;;;24.71;47.70;97369.75;126952;1092;62608;-74
2021/07/26 02:49:50;;;;;;;8.00;7.23;;;;;;;24.71;47.77;97372.42;126965;1092;62639;-73
2021/07/26 02:52:17;;;;;;;8.00;7.23;;;;;;;24.71;47.83;97372.42;126965;1092;62610;-71
2021/07/26 02:54:44;;;;;;;11.20;10.10;;;;;;;24.62;47.51;97373.63;126996;1092;62585;-73
2021/07/26 02:57:11;;;;;;;11.47;10.27;;;;;;;24.46;47.76;97374.01;126977;1092;62601;-73
2021/07/26 02:59:38;;;;;;;11.43;10.33;;;;;;;24.26;48.02;97363.19;126983;1092;62730;-73
2021/07/26 03:02:05;;;;;;;12.00;10.73;;;;;;;24.04;48.14;97365.98;127028;1092;62747;-72
2021/07/26 03:04:32;;;;;;;11.17;10.03;;;;;;;23.83;48.59;97364.22;127063;1092;62616;-72
2021/07/26 03:06:59;;;;;;;12.03;10.17;;;;;;;23.61;48.91;97358.09;127002;1092;62668;-71
2021/07/26 03:09:26;;;;;;;11.33;10.10;;;;;;;23.38;49.10;97354.84;126938;1092;62633;-74
2021/07/26 03:11:53;;;;;;;10.23;9.13;;;;;;;23.23;49.62;97348.78;126963;1092;62684;-72
2021/07/26 03:14:20;;;;;;;10.10;9.10;;;;;;;23.12;50.08;97350.14;127052;1092;62797;-72
2021/07/26 03:16:47;;;;;;;10.77;9.67;;;;;;;23.06;50.14;97361.55;127034;1092;62633;-69
2021/07/26 03:19:14;;;;;;;11.57;9.93;;;;;;;22.93;50.09;97366.79;127113;1092;62623;-77
2021/07/26 03:21:41;;;;;;;11.50;10.30;;;;;;;22.77;50.65;97378.47;127239;1092;62622;-70
2021/07/26 03:24:09;;;;;;;11.37;10.20;;;;;;;22.59;51.05;97392.21;126999;1092;62588;-71
2021/07/26 03:26:36;;;;;;;12.67;10.43;;;;;;;22.39;51.51;97397.31;127047;1092;62692;-71
2021/07/26 03:29:03;;;;;;;11.33;10.23;;;;;;;22.21;51.96;97395.04;126958;1092;62636;-71
2021/07/26 03:31:30;;;;;;;12.63;11.33;;;;;;;22.08;52.19;97397.49;127004;1092;62605;-75
2021/07/26 03:33:57;;;;;;;12.70;11.40;;;;;;;21.96;52.94;97398.98;127008;1092;62633;-72
2021/07/26 03:36:24;;;;;;;12.23;11.00;;;;;;;21.84;53.46;97395.94;126987;1092;62655;-73
2021/07/26 03:38:51;;;;;;;12.30;10.77;;;;;;;21.78;53.57;97409.98;126975;1092;62755;-70
2021/07/26 03:41:21;;;;;;;13.23;11.07;;;;;;;21.73;53.79;97413.19;127009;1092;62672;-72
2021/07/26 03:43:48;;;;;;;12.83;11.17;;;;;;;21.71;54.16;97415.19;127022;1092;62565;-70
2021/07/26 03:46:15;;;;;;;12.70;11.07;;;;;;;21.70;54.17;97410.05;126977;1092;62648;-70
2021/07/26 03:48:42;;;;;;;13.77;12.37;;;;;;;21.69;54.17;97419.88;126887;1092;62671;-69
2021/07/26 03:51:28;;;;;;;12.57;11.30;;;;;;;21.73;54.39;97415.02;127010;1092;62625;-71
2021/07/26 03:53:55;;;;;;;12.10;10.43;;;;;;;21.76;54.24;97418.13;126999;1092;62631;-70
2021/07/26 03:56:23;;;;;;;10.83;9.60;;;;;;;21.80;54.47;97422.08;127045;1091;62911;-73
2021/07/26 03:58:50;;;;;;;11.50;10.30;;;;;;;21.83;54.27;97424.38;126992;1092;62616;-71
2021/07/26 04:01:20;;;;;;;11.97;10.77;;;;;;;21.88;54.31;97431.00;126932;1092;62588;-69
2021/07/26 04:03:47;;;;;;;10.70;9.67;;;;;;;21.91;54.55;97433.27;127037;1092;62888;-69
2021/07/26 04:06:16;;;;;;;12.77;11.33;;;;;;;21.91;54.48;97436.79;126950;1092;62605;-74
2021/07/26 04:08:47;;;;;;;10.57;9.57;;;;;;;21.94;54.15;97440.91;127046;1092;62572;-72
2021/07/26 04:13:57;;;;;;;11.67;10.47;;;;;;;21.97;54.11;97445.88;126913;1092;62608;-71
2021/07/26 04:16:24;;;;;;;11.90;10.37;;;;;;;21.99;54.37;97443.84;127012;1092;62747;-73
2021/07/26 04:18:52;;;;;;;12.80;9.67;;;;;;;22.02;54.06;97438.98;126967;1092;62636;-71
2021/07/26 04:21:27;;;;;;;13.67;11.00;;;;;;;22.04;53.95;97442.27;127046;1092;62571;-70
2021/07/26 04:23:54;;;;;;;9.43;8.47;;;;;;;22.06;54.06;97450.09;126978;1092;62608;-71
2021/07/26 04:26:21;;;;;;;10.83;9.70;;;;;;;22.07;53.98;97465.05;126945;1092;62723;-72
2021/07/26 04:28:48;;;;;;;10.23;9.13;;;;;;;22.07;54.01;97468.54;126996;1092;63111;-71
2021/07/26 04:31:15;;;;;;;9.97;8.93;;;;;;;22.09;54.11;97465.69;127003;1092;62693;-71
2021/07/26 04:33:42;;;;;;;11.40;9.50;;;;;;;22.15;53.81;97474.83;126977;1092;62645;-70
2021/07/26 04:36:10;;;;;;;11.20;9.63;;;;;;;22.21;53.74;97477.58;126966;1092;62672;-70
2021/07/26 04:38:37;;;;;;;10.90;9.77;;;;;;;22.29;53.46;97469.50;127127;1092;62632;-71
2021/07/26 04:41:04;;;;;;;10.40;9.37;;;;;;;22.36;53.52;97467.73;126996;1092;62776;-69
2021/07/26 04:43:31;;;;;;;10.37;9.30;;;;;;;22.46;53.27;97469.30;126949;1092;62620;-71
2021/07/26 04:45:59;;;;;;;10.60;9.50;;;;;;;22.65;52.80;97462.56;126982;1092;62684;-70
2021/07/26 04:48:27;;;;;;;9.90;9.00;;;;;;;23.08;52.36;97456.33;126945;1092;62642;-72
2021/07/26 04:50:55;;;;;;;9.97;8.60;;;;;;;23.58;51.55;97457.22;127022;1092;62581;-72
2021/07/26 04:53:22;;;;;;;10.00;8.93;;;;;;;23.98;50.77;97464.72;126993;1090;62648;-71
2021/07/26 04:55:49;;;;;;;10.87;9.77;;;;;;;24.30;50.19;97458.75;126948;1092;62585;-72
2021/07/26 04:58:16;;;;;;;10.53;9.43;;;;;;;24.55;49.78;97455.64;127008;1092;62676;-72
2021/07/26 05:00:43;;;;;;;10.77;9.23;;;;;;;24.81;49.40;97457.57;127127;1092;62634;-72
2021/07/26 05:03:10;;;;;;;8.73;7.90;;;;;;;25.08;49.08;97458.51;127214;1092;62565;-70
2021/07/26 05:05:43;;;;;;;10.00;9.00;;;;;;;25.19;48.76;97452.58;127087;1092;62709;-72
2021/07/26 05:08:12;;;;;;;9.10;8.20;;;;;;;25.14;48.38;97444.31;127191;1092;62993;-70
2021/07/26 05:10:46;;;;;;;11.53;10.27;;;;;;;25.00;48.65;97440.75;127078;1092;62617;-74
2021/07/26 05:13:14;;;;;;;10.80;9.70;;;;;;;24.88;48.85;97439.72;127100;1092;62655;-76
2021/07/26 05:15:42;;;;;;;10.90;9.70;;;;;;;24.81;49.21;97437.01;126967;1092;62684;-70
2021/07/26 05:18:09;;;;;;;10.73;8.60;;;;;;;24.82;49.06;97433.33;127021;1092;62726;-71
2021/07/26 05:20:36;;;;;;;11.30;10.20;;;;;;;24.84;49.44;97428.59;127005;1090;62626;-72
2021/07/26 05:23:08;;;;;;;11.27;8.77;;;;;;;24.87;49.57;97427.38;127088;1092;62611;-71
2021/07/26 05:25:36;;;;;;;11.97;10.00;;;;;;;24.93;49.34;97437.26;127006;1092;62684;-71
2021/07/26 05:28:03;;;;;;;10.60;9.33;;;;;;;25.00;49.55;97434.59;126999;1092;62582;-70
2021/07/26 05:30:30;;;;;;;12.33;9.40;;;;;;;25.09;49.40;97434.22;126950;1092;62728;-71
2021/07/26 05:32:57;;;;;;;11.05;9.65;;;;;;;25.25;48.82;97433.03;127122;1092;62588;-71
2021/07/26 05:35:24;;;;;;;10.77;9.03;;;;;;;25.40;48.66;97441.69;127061;1092;62616;-73
2021/07/26 05:37:51;;;;;;;11.70;10.03;;;;;;;25.54;48.84;97436.34;127061;1092;62671;-71
2021/07/26 05:40:19;;;;;;;10.13;9.13;;;;;;;25.71;48.37;97434.91;127054;1092;62735;-72
2021/07/26 05:42:46;;;;;;;10.50;8.50;;;;;;;26.21;47.72;97447.81;127010;1092;62783;-70
2021/07/26 05:45:13;;;;;;;10.50;8.87;;;;;;;26.74;46.82;97447.69;126946;1092;62665;-69
2021/07/26 05:47:40;;;;;;;11.50;8.90;;;;;;;27.10;45.89;97444.44;127120;1092;62616;-72
2021/07/26 05:50:07;;;;;;;10.77;8.73;;;;;;;27.26;45.48;97438.53;127125;1092;62607;-71
2021/07/26 05:52:34;;;;;;;8.93;7.77;;;;;;;27.65;44.97;97440.11;127372;1090;62618;-71
2021/07/26 05:55:02;;;;;;;8.10;7.30;;;;;;;28.18;44.04;97439.63;127120;1092;62622;-71
2021/07/26 05:57:33;;;;;;;8.47;7.67;;;;;;;29.06;42.68;97451.86;127336;1092;62638;-75
2021/07/26 06:00:07;;;;;;;7.53;6.80;;;;;;;30.04;41.05;97436.23;127313;1092;62614;-72
2021/07/26 06:02:34;;;;;;;7.37;6.67;;;;;;;31.08;39.35;97447.08;127164;1092;62624;-72
2021/07/26 06:05:02;;;;;;;7.33;6.53;;;;;;;31.98;37.88;97448.91;127165;1092;62625;-72
2021/07/26 06:07:29;;;;;;;7.40;6.57;;;;;;;32.77;36.58;97448.66;127211;1092;62745;-73
2021/07/26 06:09:56;;;;;;;7.23;6.53;;;;;;;33.52;35.60;97457.06;127136;1092;62627;-72
2021/07/26 06:12:23;;;;;;;7.10;6.25;;;;;;;34.22;34.15;97452.45;127147;1092;62652;-74
2021/07/26 06:14:50;;;;;;;8.05;6.20;;;;;;;34.84;33.03;97459.81;127090;1092;62620;-73
2021/07/26 06:17:17;;;;;;;7.53;6.27;;;;;;;35.40;32.43;97468.12;127192;1092;62625;-74
2021/07/26 06:19:44;;;;;;;6.20;5.60;;;;;;;35.89;31.27;97470.34;127160;1092;62851;-73
2021/07/26 06:22:11;;;;;;;7.05;6.30;;;;;;;36.32;30.77;97477.10;127146;1092;62605;-73
2021/07/26 06:24:38;;;;;;;6.50;5.75;;;;;;;36.74;29.99;97464.20;127157;1092;62620;-73
2021/07/26 06:27:05;;;;;;;6.77;6.03;;;;;;;37.00;29.20;97459.49;127413;1092;62685;-77
2021/07/26 06:29:53;;;;;;;7.50;6.60;;;;;;;37.16;28.72;97456.41;127286;1092;62600;-71
2021/07/26 06:32:20;;;;;;;5.87;5.27;;;;;;;37.56;28.52;97457.23;127172;1092;62642;-75
2021/07/26 06:34:47;;;;;;;7.30;5.85;;;;;;;37.90;27.78;97462.72;127089;1092;62703;-73
2021/07/26 06:37:14;;;;;;;5.80;5.30;;;;;;;38.25;27.11;97458.00;127221;1092;62626;-74
2021/07/26 06:39:41;;;;;;;6.43;5.83;;;;;;;38.54;26.59;97452.50;127107;1092;62627;-73
2021/07/26 06:42:08;;;;;;;7.50;6.00;;;;;;;38.82;26.17;97459.02;127138;1092;62608;-71
2021/07/26 06:44:37;;;;;;;6.85;6.10;;;;;;;39.07;25.79;97462.53;127189;1092;62568;-75
2021/07/26 06:47:23;;;;;;;6.30;5.70;;;;;;;39.30;25.23;97469.88;127133;1092;62630;-77
2021/07/26 06:49:50;;;;;;;6.50;5.90;;;;;;;39.58;24.98;97476.28;127143;1092;62915;-72
2021/07/26 06:52:18;;;;;;;6.03;5.43;;;;;;;39.84;24.62;97476.69;127355;1092;62665;-72
2021/07/26 06:54:45;;;;;;;7.37;6.10;;;;;;;40.10;24.38;97479.02;127134;1092;62565;-73
2021/07/26 06:57:12;;;;;;;7.20;6.00;;;;;;;40.21;24.26;97474.98;127212;1090;62749;-75
2021/07/26 06:59:39;;;;;;;6.40;5.80;;;;;;;40.35;24.28;97478.54;127169;1092;62968;-75
2021/07/26 07:02:06;;;;;;;6.00;5.35;;;;;;;40.56;23.96;97476.27;127079;1090;62645;-74
2021/07/26 07:04:33;;;;;;;5.90;5.37;;;;;;;40.77;23.45;97482.16;127115;1092;62683;-78
2021/07/26 07:07:05;;;;;;;6.30;5.70;;;;;;;40.99;23.17;97473.20;127156;1092;62618;-72
2021/07/26 07:09:33;;;;;;;6.17;5.57;;;;;;;41.22;23.02;97474.06;127187;1092;63287;-72
2021/07/26 07:12:00;;;;;;;6.88;5.65;;;;;;;41.43;22.80;97483.48;127165;1092;62908;-73
2021/07/26 07:14:27;;;;;;;6.00;5.40;;;;;;;41.62;22.61;97477.81;127096;1092;62625;-72
2021/07/26 07:16:54;;;;;;;5.77;5.27;;;;;;;41.79;22.16;97481.85;127115;1092;62602;-75
2021/07/26 07:19:21;;;;;;;6.10;5.50;;;;;;;41.95;21.79;97481.13;127103;1092;62680;-73
2021/07/26 07:21:48;;;;;;;6.33;5.73;;;;;;;42.13;21.75;97481.23;127112;1092;62622;-74
2021/07/26 07:24:15;;;;;;;5.73;5.13;;;;;;;42.29;21.55;97479.72;127218;1092;62645;-75
2021/07/26 07:26:42;;;;;;;5.80;5.20;;;;;;;42.43;21.25;97477.70;127112;1092;62626;-75
2021/07/26 07:29:10;;;;;;;6.33;5.70;;;;;;;42.60;21.24;97476.13;127064;1092;62616;-73
2021/07/26 07:31:37;;;;;;;5.90;5.30;;;;;;;42.70;21.16;97478.61;127255;1092;62646;-75
2021/07/26 07:34:05;;;;;;;6.23;5.63;;;;;;;42.86;21.13;97477.05;127595;1092;62626;-72
2021/07/26 07:36:42;;;;;;;5.75;5.25;;;;;;;43.09;20.52;97468.72;127643;1092;62534;-73
2021/07/26 07:39:10;;;;;;;5.90;5.40;;;;;;;42.60;21.10;97467.89;127422;1092;62572;-74
2021/07/26 07:41:37;;;;;;;5.68;5.08;;;;;;;41.78;21.54;97471.94;127384;1092;62610;-76
2021/07/26 07:44:04;;;;;;;5.80;5.30;;;;;;;41.36;21.94;97476.77;127514;1092;62633;-72
2021/07/26 07:46:32;;;;;;;5.93;5.40;;;;;;;41.49;21.83;97484.16;127445;1092;62662;-71
2021/07/26 07:49:16;;;;;;;5.68;5.08;;;;;;;41.79;21.68;97481.85;127650;1092;62585;-76
2021/07/26 07:51:48;;;;;;;6.30;5.38;;;;;;;42.10;21.49;97487.34;127801;1092;62619;-74
2021/07/26 07:54:18;;;;;;;6.55;5.60;;;;;;;42.39;21.25;97489.64;127603;1092;62565;-74
2021/07/26 07:56:47;;;;;;;5.83;5.30;;;;;;;42.65;20.97;97481.52;127322;1092;62568;-74
2021/07/26 07:59:15;;;;;;;5.40;4.90;;;;;;;42.88;20.45;97479.47;127441;1092;62616;-76
2021/07/26 08:01:43;;;;;;;5.70;4.77;;;;;;;43.01;20.52;97477.73;127393;1092;62693;-73
2021/07/26 08:04:10;;;;;;;6.05;5.45;;;;;;;42.86;20.44;97479.80;127397;1092;62598;-77
2021/07/26 08:06:41;;;;;;;6.40;4.75;;;;;;;42.42;20.79;97473.31;127348;1092;62639;-76
2021/07/26 08:09:10;;;;;;;5.70;5.20;;;;;;;41.96;21.04;97477.25;127359;1092;62603;-74
2021/07/26 08:11:38;;;;;;;5.80;5.20;;;;;;;42.05;21.05;97479.25;127405;1092;62747;-76
2021/07/26 08:14:05;;;;;;;5.53;5.00;;;;;;;42.35;20.89;97480.41;127463;1092;62605;-70
2021/07/26 08:16:32;;;;;;;5.60;5.10;;;;;;;42.63;20.50;97481.84;127332;1092;62691;-72
